Time;durP1;ratioP1;P1;durP2;ratioP2;P2;SDS_P1;SDS_P2;PMS_P1;PMS_P2;Temp;Humidity;BMP_temperature;BMP_pressure;BME280_temperature;BME280_humidity;BME280_pressure;Samples;Min_cycle;Max_cycle;Signal;HPM_P1;HPM_P2
2022/09/11 00:00:36;;;;;;;;;;;;;;;14.49;100.00;100882.53;5023188;28;20381;-82
2022/09/11 00:03:05;;;;;;;;;;;;;;;14.43;100.00;100885.34;5027923;28;19924;-83
2022/09/11 00:05:33;;;;;;;;;;;;;;;14.37;100.00;100878.34;5045619;28;19928;-82
2022/09/11 00:08:06;;;;;;;;;;;;;;;14.39;100.00;100878.84;5033580;28;20281;-82
2022/09/11 00:10:40;;;;;;;;;;;;;;;14.42;100.00;100874.72;5031634;28;19925;-82
2022/09/11 00:13:16;;;;;;;;;;;;;;;14.34;100.00;100869.94;5027140;28;20409;-82
2022/09/11 00:15:50;;;;;;;;;;;;;;;14.31;100.00;100871.34;5046031;28;20167;-82
2022/09/11 00:18:23;;;;;;;;;;;;;;;14.27;100.00;100871.09;5023699;28;20377;-82
2022/09/11 00:20:57;;;;;;;;;;;;;;;14.22;100.00;100873.94;5032241;28;19920;-82
2022/09/11 00:23:26;;;;;;;;;;;;;;;14.18;100.00;100880.31;5037080;28;19933;-83
2022/09/11 00:26:01;;;;;;;;;;;;;;;14.15;100.00;100878.19;5023599;28;19924;-83
2022/09/11 00:28:35;;;;;;;;;;;;;;;14.14;100.00;100880.13;5069226;28;19925;-84
2022/09/11 00:31:11;;;;;;;;;;;;;;;14.19;100.00;100887.41;5026575;28;20377;-84
2022/09/11 00:33:44;;;;;;;;;;;;;;;14.15;100.00;100878.97;5033350;28;19996;-83
2022/09/11 00:36:13;;;;;;;;;;;;;;;14.16;100.00;100888.81;5028173;28;19925;-83
2022/09/11 00:38:46;;;;;;;;;;;;;;;14.17;100.00;100876.78;5036274;28;19921;-84
2022/09/11 00:41:20;;;;;;;;;;;;;;;14.20;100.00;100878.09;5061680;28;19932;-83
2022/09/11 00:43:59;;;;;;;;;;;;;;;14.21;100.00;100883.28;5030534;28;19921;-82
2022/09/11 00:46:34;;;;;;;;;;;;;;;14.20;100.00;100883.56;5022318;28;20293;-82
2022/09/11 00:49:21;;;;;;;;;;;;;;;14.16;100.00;100882.53;5022015;28;19929;-83
2022/09/11 00:51:55;;;;;;;;;;;;;;;14.24;100.00;100882.66;5042444;28;19925;-82
2022/09/11 00:54:31;;;;;;;;;;;;;;;14.23;100.00;100886.50;5039692;28;19971;-83
2022/09/11 00:57:06;;;;;;;;;;;;;;;14.25;100.00;100884.31;5031091;28;19925;-83
2022/09/11 00:59:42;;;;;;;;;;;;;;;14.26;100.00;100887.84;5028232;28;19929;-82
2022/09/11 01:02:17;;;;;;;;;;;;;;;14.28;100.00;100885.63;5029232;28;20314;-81
2022/09/11 01:04:50;;;;;;;;;;;;;;;14.28;100.00;100883.69;5033867;28;19925;-83
2022/09/11 01:07:24;;;;;;;;;;;;;;;14.22;100.00;100882.13;5032159;28;19922;-82
2022/09/11 01:09:58;;;;;;;;;;;;;;;14.21;100.00;100882.44;5053707;28;19921;-82
2022/09/11 01:12:36;;;;;;;;;;;;;;;14.21;100.00;100891.47;5022624;28;19925;-83
2022/09/11 01:15:13;;;;;;;;;;;;;;;14.21;100.00;100887.91;5059671;28;19921;-83
2022/09/11 01:17:50;;;;;;;;;;;;;;;14.15;100.00;100883.66;5029409;28;19921;-83
2022/09/11 01:20:31;;;;;;;;;;;;;;;14.07;100.00;100876.91;5032882;28;20277;-82
2022/09/11 01:23:26;;;;;;;;;;;;;;;14.02;100.00;100869.63;5032299;28;19925;-82
2022/09/11 01:26:06;;;;;;;;;;;;;;;13.99;100.00;100885.81;5045325;28;20238;-83
2022/09/11 01:28:45;;;;;;;;;;;;;;;13.93;100.00;100885.91;5047703;28;20292;-83
2022/09/11 01:31:21;;;;;;;;;;;;;;;13.92;100.00;100886.19;5025686;28;19921;-83
2022/09/11 01:33:58;;;;;;;;;;;;;;;13.91;100.00;100890.84;5027137;28;19936;-83
2022/09/11 01:36:28;;;;;;;;;;;;;;;13.95;100.00;100893.81;5063615;28;19932;-82
2022/09/11 01:38:58;;;;;;;;;;;;;;;13.95;100.00;100900.09;5030681;28;19928;-82
2022/09/11 01:41:34;;;;;;;;;;;;;;;13.92;100.00;100889.75;5040545;28;19931;-82
2022/09/11 01:44:12;;;;;;;;;;;;;;;13.98;100.00;100895.94;5028455;28;19928;-83
2022/09/11 01:46:42;;;;;;;;;;;;;;;14.02;100.00;100894.25;5030833;28;19925;-83
2022/09/11 01:49:17;;;;;;;;;;;;;;;14.01;100.00;100900.81;5038718;28;19936;-83
2022/09/11 01:51:53;;;;;;;;;;;;;;;14.08;100.00;100894.97;5033237;28;20376;-83
2022/09/11 01:54:30;;;;;;;;;;;;;;;14.08;100.00;100894.97;5024275;28;19932;-83
2022/09/11 01:57:00;;;;;;;;;;;;;;;14.09;100.00;100897.41;5040790;28;19921;-82
2022/09/11 01:59:37;;;;;;;;;;;;;;;14.15;100.00;100889.13;5050212;28;19921;-82
2022/09/11 02:02:12;;;;;;;;;;;;;;;14.12;100.00;100893.25;5042818;28;19933;-83
2022/09/11 02:04:46;;;;;;;;;;;;;;;14.10;100.00;100899.03;5070177;28;20136;-83
2022/09/11 02:07:21;;;;;;;;;;;;;;;14.12;100.00;100894.06;5041802;28;19932;-84
2022/09/11 02:09:55;;;;;;;;;;;;;;;14.07;100.00;100898.81;5033706;28;20286;-83
2022/09/11 02:12:25;;;;;;;;;;;;;;;14.11;100.00;100903.41;5025691;28;19928;-82
2022/09/11 02:15:00;;;;;;;;;;;;;;;14.07;100.00;100904.28;5037609;28;19920;-82
2022/09/11 02:17:40;;;;;;;;;;;;;;;14.10;100.00;100906.44;5027549;28;19920;-83
2022/09/11 02:20:09;;;;;;;;;;;;;;;14.04;100.00;100907.63;5023565;28;19921;-83
2022/09/11 02:22:43;;;;;;;;;;;;;;;14.08;100.00;100906.72;5020464;28;20374;-83
2022/09/11 02:25:16;;;;;;;;;;;;;;;13.99;100.00;100904.97;5031758;28;19929;-82
2022/09/11 02:27:53;;;;;;;;;;;;;;;13.98;100.00;100917.84;5025070;28;19921;-82
2022/09/11 02:30:22;;;;;;;;;;;;;;;13.89;100.00;100908.66;5025848;28;20318;-82
2022/09/11 02:32:55;;;;;;;;;;;;;;;13.95;100.00;100912.97;5027704;28;19936;-83
2022/09/11 02:35:32;;;;;;;;;;;;;;;13.96;100.00;100922.78;5032199;28;19932;-83
2022/09/11 02:38:11;;;;;;;;;;;;;;;13.99;100.00;100919.47;5043556;28;19925;-82
2022/09/11 02:40:47;;;;;;;;;;;;;;;13.97;100.00;100915.41;5065684;28;19936;-82
2022/09/11 02:43:32;;;;;;;;;;;;;;;13.97;100.00;100921.69;5032989;28;19925;-83
2022/09/11 02:46:16;;;;;;;;;;;;;;;13.98;100.00;100931.53;5042378;28;19929;-82
2022/09/11 02:48:56;;;;;;;;;;;;;;;13.84;100.00;100927.91;5029229;28;20291;-83
2022/09/11 02:51:34;;;;;;;;;;;;;;;13.93;100.00;100923.38;5039109;28;19936;-82
2022/09/11 02:54:14;;;;;;;;;;;;;;;13.95;100.00;100932.13;5032521;28;19927;-82
2022/09/11 02:56:48;;;;;;;;;;;;;;;13.88;100.00;100931.66;5022863;28;19925;-83
2022/09/11 02:59:23;;;;;;;;;;;;;;;13.86;100.00;100928.41;5031683;28;19926;-84
2022/09/11 03:02:00;;;;;;;;;;;;;;;13.87;100.00;100932.78;5022275;28;19928;-84
2022/09/11 03:04:35;;;;;;;;;;;;;;;13.83;100.00;100939.97;5030640;28;19920;-83
2022/09/11 03:07:08;;;;;;;;;;;;;;;13.88;100.00;100939.88;5075944;28;19921;-83
2022/09/11 03:09:37;;;;;;;;;;;;;;;13.84;100.00;100947.06;5015243;28;19921;-82
2022/09/11 03:12:16;;;;;;;;;;;;;;;13.89;100.00;100949.69;5055019;28;19925;-83
2022/09/11 03:14:48;;;;;;;;;;;;;;;13.86;100.00;100953.84;5059973;28;19921;-83
2022/09/11 03:17:18;;;;;;;;;;;;;;;13.85;100.00;100954.13;5029056;28;19934;-82
2022/09/11 03:19:47;;;;;;;;;;;;;;;13.88;100.00;100957.09;5057676;28;20552;-83
2022/09/11 03:22:15;;;;;;;;;;;;;;;13.82;100.00;100960.22;5031105;28;20007;-84
2022/09/11 03:24:48;;;;;;;;;;;;;;;13.89;100.00;100957.91;5041613;28;19928;-82
2022/09/11 03:27:16;;;;;;;;;;;;;;;13.88;100.00;100961.75;5063730;28;19924;-82
2022/09/11 03:29:49;;;;;;;;;;;;;;;13.78;100.00;100960.81;5019498;28;19921;-84
2022/09/11 03:32:23;;;;;;;;;;;;;;;13.86;100.00;100953.03;5027604;28;19925;-84
2022/09/11 03:34:57;;;;;;;;;;;;;;;13.84;100.00;100961.53;5031070;28;20289;-83
2022/09/11 03:37:25;;;;;;;;;;;;;;;13.80;100.00;100959.69;5039460;28;20345;-84
2022/09/11 03:39:55;;;;;;;;;;;;;;;13.79;100.00;100953.41;5066649;28;19928;-83
2022/09/11 03:42:28;;;;;;;;;;;;;;;13.74;100.00;100957.03;5026278;28;19935;-84
2022/09/11 03:45:01;;;;;;;;;;;;;;;13.78;100.00;100968.19;5013701;28;19929;-83
2022/09/11 03:47:36;;;;;;;;;;;;;;;13.83;100.00;100961.84;5061044;28;19949;-83
2022/09/11 03:50:10;;;;;;;;;;;;;;;13.82;100.00;100963.75;5022770;28;19921;-83
2022/09/11 03:52:43;;;;;;;;;;;;;;;13.84;100.00;100971.69;5030101;28;19921;-81
2022/09/11 03:55:17;;;;;;;;;;;;;;;13.77;100.00;100967.38;5034540;28;19925;-83
2022/09/11 03:57:50;;;;;;;;;;;;;;;13.75;100.00;100968.78;5048176;28;19931;-83
2022/09/11 04:00:25;;;;;;;;;;;;;;;13.76;100.00;100968.47;5042089;28;20361;-83
2022/09/11 04:03:00;;;;;;;;;;;;;;;13.77;100.00;100956.44;5026202;28;20258;-82
2022/09/11 04:05:42;;;;;;;;;;;;;;;13.80;100.00;100957.78;5041101;28;19921;-82
2022/09/11 04:08:15;;;;;;;;;;;;;;;13.77;100.00;100961.91;5020994;28;19921;-83
2022/09/11 04:10:49;;;;;;;;;;;;;;;13.76;100.00;100954.81;5033763;28;19921;-82
2022/09/11 04:13:16;;;;;;;;;;;;;;;13.80;100.00;100959.69;5022400;28;19925;-82
2022/09/11 04:15:44;;;;;;;;;;;;;;;13.77;100.00;100950.97;5041097;28;19921;-83
2022/09/11 04:18:14;;;;;;;;;;;;;;;13.67;100.00;100959.31;5058023;28;20132;-83
2022/09/11 04:20:46;;;;;;;;;;;;;;;13.68;100.00;100962.84;5026952;28;19928;-82
2022/09/11 04:23:20;;;;;;;;;;;;;;;13.69;100.00;100970.75;5064149;28;19928;-83
2022/09/11 04:25:53;;;;;;;;;;;;;;;13.73;100.00;100969.06;5033000;28;20291;-82
2022/09/11 04:28:21;;;;;;;;;;;;;;;13.65;100.00;100966.19;5025364;28;19936;-83
2022/09/11 04:30:55;;;;;;;;;;;;;;;13.67;100.00;100963.97;5030247;28;19928;-83
2022/09/11 04:33:25;;;;;;;;;;;;;;;13.63;100.00;100968.38;5034077;28;19921;-84
2022/09/11 04:35:58;;;;;;;;;;;;;;;13.57;100.00;100968.44;5064658;28;19921;-83
2022/09/11 04:38:31;;;;;;;;;;;;;;;13.62;100.00;100981.25;5045194;28;19932;-83
2022/09/11 04:40:59;;;;;;;;;;;;;;;13.65;100.00;100971.66;5081585;28;19943;-82
2022/09/11 04:43:33;;;;;;;;;;;;;;;13.65;100.00;100977.13;5061338;28;19924;-83
2022/09/11 04:46:08;;;;;;;;;;;;;;;13.69;100.00;100975.44;5032593;28;20313;-82
2022/09/11 04:48:47;;;;;;;;;;;;;;;13.59;100.00;100984.59;5032506;28;19925;-82
2022/09/11 04:51:25;;;;;;;;;;;;;;;13.57;100.00;100990.31;5046188;28;19922;-83
2022/09/11 04:54:00;;;;;;;;;;;;;;;13.61;100.00;100993.28;5080448;28;20467;-82
2022/09/11 04:56:37;;;;;;;;;;;;;;;13.66;100.00;100992.41;5027408;28;19936;-83
2022/09/11 04:59:12;;;;;;;;;;;;;;;13.68;100.00;100998.41;5061812;28;19944;-84
2022/09/11 05:01:54;;;;;;;;;;;;;;;13.57;100.00;100990.31;5033306;28;19921;-83
2022/09/11 05:04:30;;;;;;;;;;;;;;;13.68;100.00;100993.75;5029214;28;20317;-82
2022/09/11 05:07:03;;;;;;;;;;;;;;;13.69;100.00;100989.91;5061796;28;20417;-81
2022/09/11 05:09:36;;;;;;;;;;;;;;;13.73;100.00;100992.88;5032785;28;19925;-84
2022/09/11 05:12:05;;;;;;;;;;;;;;;13.75;100.00;100993.38;5036853;28;19922;-82
2022/09/11 05:14:38;;;;;;;;;;;;;;;13.79;100.00;100999.91;5036601;28;20404;-83
2022/09/11 05:17:12;;;;;;;;;;;;;;;13.76;100.00;101005.97;5019487;28;20412;-83
2022/09/11 05:19:46;;;;;;;;;;;;;;;13.78;100.00;101001.00;5026025;28;19929;-82
2022/09/11 05:22:22;;;;;;;;;;;;;;;13.83;100.00;101016.56;5042528;28;20395;-82
2022/09/11 05:24:57;;;;;;;;;;;;;;;13.85;100.00;101001.47;5047805;28;19924;-81
2022/09/11 05:27:25;;;;;;;;;;;;;;;13.76;100.00;101017.72;5031786;28;19921;-85
2022/09/11 05:29:53;;;;;;;;;;;;;;;13.87;100.00;101012.13;5048350;28;19984;-82
2022/09/11 05:32:23;;;;;;;;;;;;;;;13.89;100.00;101005.25;5032288;28;19925;-83
2022/09/11 05:34:58;;;;;;;;;;;;;;;13.91;100.00;101010.44;5032231;28;19928;-82
2022/09/11 05:37:31;;;;;;;;;;;;;;;13.98;100.00;101007.34;5033521;28;20389;-83
2022/09/11 05:40:04;;;;;;;;;;;;;;;14.00;100.00;101011.38;5031741;28;19921;-82
2022/09/11 05:42:33;;;;;;;;;;;;;;;14.01;100.00;101014.94;5032422;28;19921;-84
2022/09/11 05:45:01;;;;;;;;;;;;;;;13.95;100.00;101009.53;5032394;28;19921;-83
2022/09/11 05:47:28;;;;;;;;;;;;;;;14.00;100.00;101025.06;5047904;28;19932;-82
2022/09/11 05:50:03;;;;;;;;;;;;;;;14.03;100.00;101026.41;5031836;28;19925;-83
2022/09/11 05:52:37;;;;;;;;;;;;;;;14.12;100.00;101032.84;5032070;28;19921;-83
2022/09/11 05:55:09;;;;;;;;;;;;;;;14.16;100.00;101035.81;5032001;28;19921;-81
2022/09/11 05:57:37;;;;;;;;;;;;;;;14.18;100.00;101039.06;5032876;28;20297;-82
2022/09/11 06:00:12;;;;;;;;;;;;;;;14.11;100.00;101043.00;5065055;28;20384;-82
2022/09/11 06:02:49;;;;;;;;;;;;;;;14.16;100.00;101042.09;5036732;28;19928;-83
2022/09/11 06:05:27;;;;;;;;;;;;;;;14.21;100.00;101047.50;5031970;28;20362;-84
2022/09/11 06:08:03;;;;;;;;;;;;;;;14.19;100.00;101052.44;5031032;28;19925;-83
2022/09/11 06:10:36;;;;;;;;;;;;;;;14.12;100.00;101055.53;5031364;28;20366;-82
2022/09/11 06:13:09;;;;;;;;;;;;;;;14.20;100.00;101056.81;5033477;28;19944;-83
2022/09/11 06:15:37;;;;;;;;;;;;;;;14.17;100.00;101059.31;5031417;28;19924;-81
2022/09/11 06:18:10;;;;;;;;;;;;;;;14.15;100.00;101067.03;5058008;28;19921;-82
2022/09/11 06:20:54;;;;;;;;;;;;;;;14.10;100.00;101067.91;5031910;28;19932;-82
2022/09/11 06:23:29;;;;;;;;;;;;;;;14.15;100.00;101067.81;5040353;28;19933;-82
2022/09/11 06:26:02;;;;;;;;;;;;;;;14.22;100.00;101062.78;5023529;28;19921;-82
2022/09/11 06:28:37;;;;;;;;;;;;;;;14.29;100.00;101070.66;5035164;28;19925;-83
2022/09/11 06:31:15;;;;;;;;;;;;;;;14.26;100.00;101068.50;5027629;28;19925;-82
2022/09/11 06:33:48;;;;;;;;;;;;;;;14.32;100.00;101069.25;5027445;28;19921;-83
2022/09/11 06:36:25;;;;;;;;;;;;;;;14.37;100.00;101080.13;5020646;28;19921;-82
2022/09/11 06:39:01;;;;;;;;;;;;;;;14.34;100.00;101078.78;5040200;28;19929;-82
2022/09/11 06:41:29;;;;;;;;;;;;;;;14.37;100.00;101075.47;5026235;28;19932;-82
2022/09/11 06:44:08;;;;;;;;;;;;;;;14.38;100.00;101079.84;5036629;28;19922;-84
2022/09/11 06:46:41;;;;;;;;;;;;;;;14.42;100.00;101069.91;5052873;28;20312;-81
2022/09/11 06:49:10;;;;;;;;;;;;;;;14.52;100.00;101076.38;5043237;28;19921;-82
2022/09/11 06:52:03;;;;;;;;;;;;;;;14.53;100.00;101072.50;5039231;28;19925;-82
2022/09/11 06:54:37;;;;;;;;;;;;;;;14.58;100.00;101075.16;5031092;28;19921;-82
2022/09/11 06:57:09;;;;;;;;;;;;;;;14.56;100.00;101075.47;5036512;28;19925;-84
2022/09/11 06:59:43;;;;;;;;;;;;;;;14.60;100.00;101076.50;5063597;28;19932;-84
2022/09/11 07:02:16;;;;;;;;;;;;;;;14.62;100.00;101074.31;5024777;28;19929;-85
2022/09/11 07:04:49;;;;;;;;;;;;;;;14.69;100.00;101082.13;5043424;28;19932;-86
2022/09/11 07:07:19;;;;;;;;;;;;;;;14.85;100.00;101076.44;5043815;28;20286;-84
2022/09/11 07:09:51;;;;;;;;;;;;;;;14.96;100.00;101075.94;5040344;28;19922;-86
2022/09/11 07:12:25;;;;;;;;;;;;;;;15.10;100.00;101078.72;5023030;28;19921;-86
2022/09/11 07:14:55;;;;;;;;;;;;;;;15.13;100.00;101082.81;5021327;28;19921;-85
2022/09/11 07:17:28;;;;;;;;;;;;;;;15.18;100.00;101073.66;5026909;28;20305;-86
2022/09/11 07:19:59;;;;;;;;;;;;;;;15.11;100.00;101077.63;5040752;28;19928;-85
2022/09/11 07:22:34;;;;;;;;;;;;;;;15.10;100.00;101084.22;5031802;28;19921;-86
2022/09/11 07:25:09;;;;;;;;;;;;;;;15.20;100.00;101085.97;5032382;28;19920;-83
2022/09/11 07:27:40;;;;;;;;;;;;;;;15.33;100.00;101086.28;5032232;28;19925;-84
2022/09/11 07:30:10;;;;;;;;;;;;;;;15.46;100.00;101082.75;5032416;28;20313;-85
2022/09/11 07:32:45;;;;;;;;;;;;;;;15.61;100.00;101092.63;5032341;28;20289;-86
2022/09/11 07:35:20;;;;;;;;;;;;;;;15.49;100.00;101098.59;5038837;28;19921;-85
2022/09/11 07:37:55;;;;;;;;;;;;;;;15.36;100.00;101091.19;5041425;28;19921;-84
2022/09/11 07:40:28;;;;;;;;;;;;;;;15.49;100.00;101093.13;5058279;28;19928;-84
2022/09/11 07:43:02;;;;;;;;;;;;;;;15.46;100.00;101093.72;5043657;28;19925;-85
2022/09/11 07:45:36;;;;;;;;;;;;;;;15.44;100.00;101093.25;5059053;28;20319;-85
2022/09/11 07:48:05;;;;;;;;;;;;;;;15.24;100.00;101106.19;5024533;28;19929;-83
2022/09/11 07:50:39;;;;;;;;;;;;;;;15.32;100.00;101104.69;5042047;28;20321;-84
2022/09/11 07:53:14;;;;;;;;;;;;;;;15.17;100.00;101108.50;5031516;28;20392;-84
2022/09/11 07:55:48;;;;;;;;;;;;;;;15.44;100.00;101115.97;5031796;28;19921;-83
2022/09/11 07:58:21;;;;;;;;;;;;;;;15.64;100.00;101111.22;5029746;28;19929;-83
2022/09/11 08:00:57;;;;;;;;;;;;;;;15.70;100.00;101114.69;5065353;28;19928;-84
2022/09/11 08:03:30;;;;;;;;;;;;;;;15.63;100.00;101117.81;5051146;28;19928;-84
2022/09/11 08:05:59;;;;;;;;;;;;;;;15.69;100.00;101118.53;5051200;28;20298;-85
2022/09/11 08:08:29;;;;;;;;;;;;;;;15.55;100.00;101124.84;5039635;28;19921;-83
2022/09/11 08:11:01;;;;;;;;;;;;;;;15.61;100.00;101117.34;5060161;28;19928;-83
2022/09/11 08:13:36;;;;;;;;;;;;;;;15.53;100.00;101118.84;5037202;28;19927;-85
2022/09/11 08:16:04;;;;;;;;;;;;;;;15.38;100.00;101128.16;5042074;28;19922;-83
2022/09/11 08:18:38;;;;;;;;;;;;;;;15.50;100.00;101135.09;5042939;28;19925;-84
2022/09/11 08:21:12;;;;;;;;;;;;;;;15.53;100.00;101138.03;5065051;28;19928;-85
2022/09/11 08:23:43;;;;;;;;;;;;;;;15.75;100.00;101142.84;5038247;28;19920;-84
2022/09/11 08:26:20;;;;;;;;;;;;;;;15.95;100.00;101138.09;5037391;28;19921;-84
2022/09/11 08:28:51;;;;;;;;;;;;;;;15.90;100.00;101144.50;5032271;28;19929;-84
2022/09/11 08:31:20;;;;;;;;;;;;;;;16.08;100.00;101152.97;5035086;28;19920;-85
2022/09/11 08:33:58;;;;;;;;;;;;;;;16.24;100.00;101150.69;5024310;28;19925;-84
2022/09/11 08:36:31;;;;;;;;;;;;;;;16.29;100.00;101148.66;5038995;28;19948;-84
2022/09/11 08:39:05;;;;;;;;;;;;;;;16.42;100.00;101151.69;5048686;28;19921;-84
2022/09/11 08:41:47;;;;;;;;;;;;;;;16.29;100.00;101150.59;5048616;28;19921;-84
2022/09/11 08:44:24;;;;;;;;;;;;;;;16.11;100.00;101164.13;5068462;28;19921;-86
2022/09/11 08:47:15;;;;;;;;;;;;;;;16.02;100.00;101174.22;5031521;28;19925;-83
2022/09/11 08:49:46;;;;;;;;;;;;;;;15.94;100.00;101167.47;5022605;28;19951;-87
2022/09/11 08:52:15;;;;;;;;;;;;;;;16.15;100.00;101161.59;5008380;28;19931;-85
2022/09/11 08:54:50;;;;;;;;;;;;;;;16.41;100.00;101166.56;5008068;28;20278;-85
2022/09/11 08:57:28;;;;;;;;;;;;;;;16.47;100.00;101166.16;5026714;28;19929;-85
2022/09/11 09:00:03;;;;;;;;;;;;;;;16.59;100.00;101164.78;5017363;28;21471;-86
2022/09/11 09:02:48;;;;;;;;;;;;;;;16.36;100.00;101169.41;5007509;28;19925;-85
2022/09/11 09:05:25;;;;;;;;;;;;;;;16.55;100.00;101161.03;5004216;28;19929;-84
2022/09/11 09:08:01;;;;;;;;;;;;;;;16.52;100.00;101165.22;5005463;28;19936;-86
2022/09/11 09:10:47;;;;;;;;;;;;;;;16.42;100.00;101168.16;5000266;28;19929;-88
2022/09/11 09:13:24;;;;;;;;;;;;;;;16.21;100.00;101170.53;5002852;28;20012;-83
2022/09/11 09:15:56;;;;;;;;;;;;;;;16.17;100.00;101172.25;5014081;28;19928;-87
2022/09/11 09:18:31;;;;;;;;;;;;;;;16.33;100.00;101170.84;5022619;28;19936;-85
2022/09/11 09:21:04;;;;;;;;;;;;;;;16.47;100.00;101162.56;5020320;28;19929;-84
2022/09/11 09:23:39;;;;;;;;;;;;;;;16.50;100.00;101164.69;5008596;28;19955;-83
2022/09/11 09:26:14;;;;;;;;;;;;;;;16.29;100.00;101178.06;5048036;28;20016;-83
2022/09/11 09:28:50;;;;;;;;;;;;;;;16.56;100.00;101168.97;5037963;28;20621;-82
2022/09/11 09:31:26;;;;;;;;;;;;;;;16.84;100.00;101174.41;5046918;28;19929;-84
2022/09/11 09:34:02;;;;;;;;;;;;;;;16.80;100.00;101179.69;5030343;28;19940;-85
2022/09/11 09:36:38;;;;;;;;;;;;;;;16.66;100.00;101178.91;5057808;28;19921;-84
2022/09/11 09:39:12;;;;;;;;;;;;;;;16.53;100.00;101174.25;5028650;28;19920;-83
2022/09/11 09:41:53;;;;;;;;;;;;;;;16.58;100.00;101174.97;5032498;28;19928;-83
2022/09/11 09:44:28;;;;;;;;;;;;;;;16.71;100.00;101170.56;5064579;28;19929;-83
2022/09/11 09:47:01;;;;;;;;;;;;;;;16.74;100.00;101169.16;5039171;28;20297;-84
2022/09/11 09:49:36;;;;;;;;;;;;;;;16.57;100.00;101173.34;5034530;28;20605;-85
2022/09/11 09:52:15;;;;;;;;;;;;;;;16.31;100.00;101171.16;5031423;28;19921;-85
2022/09/11 09:54:52;;;;;;;;;;;;;;;16.31;100.00;101173.88;5037797;28;19922;-84
2022/09/11 09:57:23;;;;;;;;;;;;;;;16.32;100.00;101170.03;5039461;28;19927;-83
2022/09/11 10:00:01;;;;;;;;;;;;;;;16.61;100.00;101174.34;5033584;28;20370;-83
2022/09/11 10:02:40;;;;;;;;;;;;;;;16.64;100.00;101173.75;5037198;28;19928;-84
2022/09/11 10:05:18;;;;;;;;;;;;;;;16.69;100.00;101169.25;5027933;28;19928;-84
2022/09/11 10:07:47;;;;;;;;;;;;;;;16.80;100.00;101178.88;5029164;28;19929;-83
2022/09/11 10:10:22;;;;;;;;;;;;;;;17.05;100.00;101183.00;5037002;28;20292;-84
2022/09/11 10:12:58;;;;;;;;;;;;;;;17.22;100.00;101179.59;5029672;28;19925;-84
2022/09/11 10:15:27;;;;;;;;;;;;;;;17.18;100.00;101173.09;5051763;28;20309;-84
2022/09/11 10:18:15;;;;;;;;;;;;;;;17.49;100.00;101172.31;5029290;28;19928;-82
2022/09/11 10:20:43;;;;;;;;;;;;;;;17.53;100.00;101172.50;5029241;28;19929;-84
2022/09/11 10:23:22;;;;;;;;;;;;;;;17.70;100.00;101175.31;5038952;28;19928;-83
2022/09/11 10:25:55;;;;;;;;;;;;;;;17.57;100.00;101179.00;5038255;28;19921;-84
2022/09/11 10:28:29;;;;;;;;;;;;;;;17.60;100.00;101176.41;5033334;28;19921;-85
2022/09/11 10:31:03;;;;;;;;;;;;;;;17.48;100.00;101179.75;5033033;28;19925;-86
2022/09/11 10:33:33;;;;;;;;;;;;;;;17.53;100.00;101178.81;5051629;28;19921;-82
2022/09/11 10:36:08;;;;;;;;;;;;;;;17.42;100.00;101186.50;5051740;28;19921;-85
2022/09/11 10:38:46;;;;;;;;;;;;;;;17.49;100.00;101184.09;5026928;28;19924;-84
2022/09/11 10:41:20;;;;;;;;;;;;;;;17.42;100.00;101186.50;5044419;28;19928;-84
2022/09/11 10:43:58;;;;;;;;;;;;;;;17.47;100.00;101188.31;5063385;28;19932;-85
2022/09/11 10:46:31;;;;;;;;;;;;;;;17.52;100.00;101188.16;5034256;28;19928;-84
2022/09/11 10:49:19;;;;;;;;;;;;;;;17.42;100.00;101188.44;5032425;28;19925;-82
2022/09/11 10:51:58;;;;;;;;;;;;;;;17.43;100.00;101185.38;5049617;28;19921;-83
2022/09/11 10:54:32;;;;;;;;;;;;;;;17.36;100.00;101184.19;5030638;28;19922;-85
2022/09/11 10:57:12;;;;;;;;;;;;;;;17.36;100.00;101173.19;5045098;28;19921;-83
2022/09/11 10:59:54;;;;;;;;;;;;;;;17.44;100.00;101183.44;5040816;28;19929;-83
2022/09/11 11:02:28;;;;;;;;;;;;;;;17.36;100.00;101182.25;5016414;28;19921;-83
2022/09/11 11:04:56;;;;;;;;;;;;;;;17.43;100.00;101179.06;5056966;28;20296;-84
2022/09/11 11:07:35;;;;;;;;;;;;;;;17.47;100.00;101178.13;5036605;28;19928;-85
2022/09/11 11:10:16;;;;;;;;;;;;;;;17.56;100.00;101188.38;5032314;28;20574;-83
2022/09/11 11:12:56;;;;;;;;;;;;;;;17.66;100.00;101185.34;5029842;28;19925;-84
2022/09/11 11:15:30;;;;;;;;;;;;;;;17.58;100.00;101192.44;5056264;28;20409;-83
2022/09/11 11:18:20;;;;;;;;;;;;;;;17.56;100.00;101193.88;5030670;28;19925;-83
2022/09/11 11:20:52;;;;;;;;;;;;;;;17.49;100.00;101195.13;5029228;28;19922;-82
2022/09/11 11:23:30;;;;;;;;;;;;;;;17.40;100.00;101191.53;5012831;28;20409;-82
2022/09/11 11:26:13;;;;;;;;;;;;;;;17.35;100.00;101186.13;5013391;28;20149;-83
2022/09/11 11:28:59;;;;;;;;;;;;;;;17.34;100.00;101185.34;5011502;28;19932;-82
2022/09/11 11:31:37;;;;;;;;;;;;;;;17.31;100.00;101196.13;5024086;28;19928;-84
2022/09/11 11:34:18;;;;;;;;;;;;;;;17.44;100.00;101199.94;5031686;28;19943;-84
2022/09/11 11:36:54;;;;;;;;;;;;;;;17.41;100.00;101193.13;5032050;28;19921;-82
2022/09/11 11:39:24;;;;;;;;;;;;;;;17.34;100.00;101193.59;5031807;28;19921;-83
2022/09/11 11:42:05;;;;;;;;;;;;;;;17.54;100.00;101188.69;5064416;28;19928;-83
2022/09/11 11:44:43;;;;;;;;;;;;;;;17.61;100.00;101197.31;5023373;28;19928;-82
2022/09/11 11:47:24;;;;;;;;;;;;;;;17.58;100.00;101195.19;5065675;28;19920;-83
2022/09/11 11:49:56;;;;;;;;;;;;;;;17.54;100.00;101204.38;5076861;28;19921;-82
2022/09/11 11:52:35;;;;;;;;;;;;;;;17.46;100.00;101204.00;5031419;28;20361;-84
2022/09/11 11:55:15;;;;;;;;;;;;;;;17.44;100.00;101209.03;5018265;28;20385;-84
2022/09/11 11:57:48;;;;;;;;;;;;;;;17.39;100.00;101209.16;5026279;28;19925;-85
2022/09/11 12:00:17;;;;;;;;;;;;;;;17.33;100.00;101210.38;5011738;28;19928;-87
2022/09/11 12:02:51;;;;;;;;;;;;;;;17.38;100.00;101209.47;5011187;28;19938;-88
2022/09/11 12:05:22;;;;;;;;;;;;;;;17.41;100.00;101212.38;5008371;28;19940;-83
2022/09/11 12:07:55;;;;;;;;;;;;;;;17.60;100.00;101211.38;5006775;28;19929;-86
2022/09/11 12:10:28;;;;;;;;;;;;;;;17.74;100.00;101209.34;5007156;28;19936;-86
2022/09/11 12:12:58;;;;;;;;;;;;;;;17.74;100.00;101214.84;5007914;28;19924;-85
2022/09/11 12:15:33;;;;;;;;;;;;;;;17.79;100.00;101211.97;5022534;28;19928;-86
2022/09/11 12:18:22;;;;;;;;;;;;;;;17.69;100.00;101212.25;5009035;28;19928;-86
2022/09/11 12:20:50;;;;;;;;;;;;;;;17.80;100.00;101215.53;5011883;28;19929;-87
2022/09/11 12:23:33;;;;;;;;;;;;;;;17.80;100.00;101208.09;5009067;28;19983;-86
2022/09/11 12:26:15;;;;;;;;;;;;;;;17.86;100.00;101206.00;5014464;28;19921;-85
2022/09/11 12:28:44;;;;;;;;;;;;;;;17.78;100.00;101213.09;5014677;28;19929;-83
2022/09/11 12:31:17;;;;;;;;;;;;;;;17.89;100.00;101205.38;5010383;28;19929;-85
2022/09/11 12:33:53;;;;;;;;;;;;;;;17.93;100.00;101209.16;5008802;28;19936;-83
2022/09/11 12:36:38;;;;;;;;;;;;;;;17.86;100.00;101206.00;5015038;28;19929;-85
2022/09/11 12:39:22;;;;;;;;;;;;;;;17.75;100.00;101212.94;5003048;28;19928;-87
2022/09/11 12:42:10;;;;;;;;;;;;;;;17.72;100.00;101217.13;5018373;28;19929;-89
2022/09/11 12:44:56;;;;;;;;;;;;;;;17.69;100.00;101212.25;5013935;28;19936;-83
2022/09/11 12:47:33;;;;;;;;;;;;;;;17.77;100.00;101211.50;5017137;28;19929;-86
2022/09/11 12:50:06;;;;;;;;;;;;;;;17.85;100.00;101215.41;5009353;28;19928;-83
2022/09/11 12:52:39;;;;;;;;;;;;;;;17.69;100.00;101212.25;5025996;28;19929;-87
2022/09/11 12:55:28;;;;;;;;;;;;;;;17.71;100.00;101217.44;5027299;28;19929;-82
2022/09/11 12:58:03;;;;;;;;;;;;;;;17.65;100.00;101211.25;5019609;28;19936;-87
2022/09/11 13:00:35;;;;;;;;;;;;;;;17.58;100.00;101214.44;5018017;28;19935;-87
2022/09/11 13:03:16;;;;;;;;;;;;;;;17.47;100.00;101213.09;5016074;28;19929;-87
2022/09/11 13:05:55;;;;;;;;;;;;;;;17.42;100.00;101213.22;5016847;28;19933;-85